sensor_id;sensor_type;location;lat;lon;timestamp;temperature;humidity
56162;DHT22;42045;52.986;6.014;2023-05-14T00:01:11;10.70;99.90
56162;DHT22;42045;52.986;6.014;2023-05-14T00:03:37;10.70;99.90
56162;DHT22;42045;52.986;6.014;2023-05-14T00:06:05;10.70;99.90
56162;DHT22;42045;52.986;6.014;2023-05-14T00:08:31;10.60;99.90
56162;DHT22;42045;52.986;6.014;2023-05-14T00:10:57;10.50;99.90
56162;DHT22;42045;52.986;6.014;2023-05-14T00:13:24;10.40;99.90
56162;DHT22;42045;52.986;6.014;2023-05-14T00:15:49;10.40;99.90
56162;DHT22;42045;52.986;6.014;2023-05-14T00:18:15;10.40;99.90
56162;DHT22;42045;52.986;6.014;2023-05-14T00:20:41;10.40;99.90
56162;DHT22;42045;52.986;6.014;2023-05-14T00:23:06;10.40;99.90
56162;DHT22;42045;52.986;6.014;2023-05-14T00:25:32;10.40;99.90
56162;DHT22;42045;52.986;6.014;2023-05-14T00:27:58;10.40;99.90
56162;DHT22;42045;52.986;6.014;2023-05-14T00:30:23;10.40;99.90
56162;DHT22;42045;52.986;6.014;2023-05-14T00:32:49;10.40;99.90
56162;DHT22;42045;52.986;6.014;2023-05-14T00:35:15;10.40;99.90
56162;DHT22;42045;52.986;6.014;2023-05-14T00:37:41;10.40;99.90
56162;DHT22;42045;52.986;6.014;2023-05-14T00:40:07;10.40;99.90
56162;DHT22;42045;52.986;6.014;2023-05-14T00:42:33;10.30;99.90
56162;DHT22;42045;52.986;6.014;2023-05-14T00:44:59;10.30;99.90
56162;DHT22;42045;52.986;6.014;2023-05-14T00:47:25;10.30;99.90
56162;DHT22;42045;52.986;6.014;2023-05-14T00:49:51;10.30;99.90
56162;DHT22;42045;52.986;6.014;2023-05-14T00:52:17;10.20;99.90
56162;DHT22;42045;52.986;6.014;2023-05-14T00:54:45;10.10;99.90
56162;DHT22;42045;52.986;6.014;2023-05-14T00:57:11;10.00;99.90
56162;DHT22;42045;52.986;6.014;2023-05-14T00:59:37;10.00;99.90
56162;DHT22;42045;52.986;6.014;2023-05-14T01:02:05;10.00;99.90
56162;DHT22;42045;52.986;6.014;2023-05-14T01:04:31;10.00;99.90
56162;DHT22;42045;52.986;6.014;2023-05-14T01:07:48;10.00;99.90
56162;DHT22;42045;52.986;6.014;2023-05-14T01:10:04;10.00;99.90
56162;DHT22;42045;52.986;6.014;2023-05-14T01:12:51;10.00;99.90
56162;DHT22;42045;52.986;6.014;2023-05-14T01:15:24;10.00;99.90
56162;DHT22;42045;52.986;6.014;2023-05-14T01:17:53;10.00;99.90
56162;DHT22;42045;52.986;6.014;2023-05-14T01:20:21;10.00;99.90
56162;DHT22;42045;52.986;6.014;2023-05-14T01:22:46;10.00;99.90
56162;DHT22;42045;52.986;6.014;2023-05-14T01:25:12;9.90;99.90
56162;DHT22;42045;52.986;6.014;2023-05-14T01:30:30;9.90;99.90
56162;DHT22;42045;52.986;6.014;2023-05-14T01:33:00;9.90;99.90
56162;DHT22;42045;52.986;6.014;2023-05-14T01:35:28;9.90;99.90
56162;DHT22;42045;52.986;6.014;2023-05-14T01:37:56;9.90;99.90
56162;DHT22;42045;52.986;6.014;2023-05-14T01:40:23;9.90;99.90
56162;DHT22;42045;52.986;6.014;2023-05-14T01:42:49;9.90;99.90
56162;DHT22;42045;52.986;6.014;2023-05-14T01:45:22;9.90;99.90
56162;DHT22;42045;52.986;6.014;2023-05-14T01:47:49;9.90;99.90
56162;DHT22;42045;52.986;6.014;2023-05-14T01:50:15;9.90;99.90
56162;DHT22;42045;52.986;6.014;2023-05-14T01:52:41;9.90;99.90
56162;DHT22;42045;52.986;6.014;2023-05-14T01:55:07;9.90;99.90
56162;DHT22;42045;52.986;6.014;2023-05-14T01:57:33;9.90;99.90
56162;DHT22;42045;52.986;6.014;2023-05-14T01:59:58;9.90;99.90
56162;DHT22;42045;52.986;6.014;2023-05-14T02:02:24;9.80;99.90
56162;DHT22;42045;52.986;6.014;2023-05-14T02:04:51;9.80;99.90
56162;DHT22;42045;52.986;6.014;2023-05-14T02:07:17;9.80;99.90
56162;DHT22;42045;52.986;6.014;2023-05-14T02:09:42;9.70;99.90
56162;DHT22;42045;52.986;6.014;2023-05-14T02:12:08;9.70;99.90
56162;DHT22;42045;52.986;6.014;2023-05-14T02:14:35;9.70;99.90
56162;DHT22;42045;52.986;6.014;2023-05-14T02:17:01;9.70;99.90
56162;DHT22;42045;52.986;6.014;2023-05-14T02:19:28;9.70;99.90
56162;DHT22;42045;52.986;6.014;2023-05-14T02:21:54;9.70;99.90
56162;DHT22;42045;52.986;6.014;2023-05-14T02:24:19;9.70;99.90
56162;DHT22;42045;52.986;6.014;2023-05-14T02:26:45;9.70;99.90
56162;DHT22;42045;52.986;6.014;2023-05-14T02:29:11;9.70;99.90
56162;DHT22;42045;52.986;6.014;2023-05-14T02:31:37;9.70;99.90
56162;DHT22;42045;52.986;6.014;2023-05-14T02:34:03;9.80;99.90
56162;DHT22;42045;52.986;6.014;2023-05-14T02:36:30;9.80;99.90
56162;DHT22;42045;52.986;6.014;2023-05-14T02:38:57;9.80;99.90
56162;DHT22;42045;52.986;6.014;2023-05-14T02:41:23;9.80;99.90
56162;DHT22;42045;52.986;6.014;2023-05-14T02:43:49;9.80;99.90
56162;DHT22;42045;52.986;6.014;2023-05-14T02:46:14;9.80;99.90
56162;DHT22;42045;52.986;6.014;2023-05-14T02:48:40;9.80;99.90
56162;DHT22;42045;52.986;6.014;2023-05-14T02:51:06;9.80;99.90
56162;DHT22;42045;52.986;6.014;2023-05-14T02:53:32;9.80;99.90
56162;DHT22;42045;52.986;6.014;2023-05-14T02:55:58;9.80;99.90
56162;DHT22;42045;52.986;6.014;2023-05-14T02:58:23;9.80;99.90
56162;DHT22;42045;52.986;6.014;2023-05-14T03:00:49;9.80;99.90
56162;DHT22;42045;52.986;6.014;2023-05-14T03:03:15;9.70;99.90
56162;DHT22;42045;52.986;6.014;2023-05-14T03:05:41;9.80;99.90
56162;DHT22;42045;52.986;6.014;2023-05-14T03:08:06;9.80;99.90
56162;DHT22;42045;52.986;6.014;2023-05-14T03:10:32;9.80;99.90
56162;DHT22;42045;52.986;6.014;2023-05-14T03:12:58;9.80;99.90
56162;DHT22;42045;52.986;6.014;2023-05-14T03:15:24;9.80;99.90
56162;DHT22;42045;52.986;6.014;2023-05-14T03:17:50;9.80;99.90
56162;DHT22;42045;52.986;6.014;2023-05-14T03:20:15;9.80;99.90
56162;DHT22;42045;52.986;6.014;2023-05-14T03:22:41;9.80;99.90
56162;DHT22;42045;52.986;6.014;2023-05-14T03:25:07;9.80;99.90
56162;DHT22;42045;52.986;6.014;2023-05-14T03:27:33;9.80;99.90
56162;DHT22;42045;52.986;6.014;2023-05-14T03:29:59;9.80;99.90
56162;DHT22;42045;52.986;6.014;2023-05-14T03:32:25;9.80;99.90
56162;DHT22;42045;52.986;6.014;2023-05-14T03:34:50;9.70;99.90
56162;DHT22;42045;52.986;6.014;2023-05-14T03:37:16;9.80;99.90
56162;DHT22;42045;52.986;6.014;2023-05-14T03:39:42;9.80;99.90
56162;DHT22;42045;52.986;6.014;2023-05-14T03:42:07;9.80;99.90
56162;DHT22;42045;52.986;6.014;2023-05-14T03:44:33;9.70;99.90
56162;DHT22;42045;52.986;6.014;2023-05-14T03:46:59;9.70;99.90
56162;DHT22;42045;52.986;6.014;2023-05-14T03:49:24;9.70;99.90
56162;DHT22;42045;52.986;6.014;2023-05-14T03:51:50;9.70;99.90
56162;DHT22;42045;52.986;6.014;2023-05-14T03:54:15;9.70;99.90
56162;DHT22;42045;52.986;6.014;2023-05-14T03:56:41;9.70;99.90
56162;DHT22;42045;52.986;6.014;2023-05-14T03:59:07;9.70;99.90
56162;DHT22;42045;52.986;6.014;2023-05-14T04:01:32;9.70;99.90
56162;DHT22;42045;52.986;6.014;2023-05-14T04:03:58;9.70;99.90
56162;DHT22;42045;52.986;6.014;2023-05-14T04:06:24;9.80;99.90
56162;DHT22;42045;52.986;6.014;2023-05-14T04:08:49;9.80;99.90
56162;DHT22;42045;52.986;6.014;2023-05-14T04:11:15;9.80;99.90
56162;DHT22;42045;52.986;6.014;2023-05-14T04:13:41;9.90;99.90
56162;DHT22;42045;52.986;6.014;2023-05-14T04:16:06;9.80;99.90
56162;DHT22;42045;52.986;6.014;2023-05-14T04:18:32;9.90;99.90
56162;DHT22;42045;52.986;6.014;2023-05-14T04:21:01;9.90;99.90
56162;DHT22;42045;52.986;6.014;2023-05-14T04:23:28;10.00;99.90
56162;DHT22;42045;52.986;6.014;2023-05-14T04:25:56;10.00;99.90
56162;DHT22;42045;52.986;6.014;2023-05-14T04:28:22;10.10;99.90
56162;DHT22;42045;52.986;6.014;2023-05-14T04:30:48;10.10;99.90
56162;DHT22;42045;52.986;6.014;2023-05-14T04:33:14;10.30;99.90
56162;DHT22;42045;52.986;6.014;2023-05-14T04:35:40;10.40;99.90
56162;DHT22;42045;52.986;6.014;2023-05-14T04:38:05;10.60;99.90
56162;DHT22;42045;52.986;6.014;2023-05-14T04:40:31;10.80;99.90
56162;DHT22;42045;52.986;6.014;2023-05-14T04:42:57;11.00;99.90
56162;DHT22;42045;52.986;6.014;2023-05-14T04:45:23;11.20;99.90
56162;DHT22;42045;52.986;6.014;2023-05-14T04:47:48;11.50;99.90
56162;DHT22;42045;52.986;6.014;2023-05-14T04:50:14;11.50;99.90
56162;DHT22;42045;52.986;6.014;2023-05-14T04:52:40;11.50;99.90
56162;DHT22;42045;52.986;6.014;2023-05-14T04:55:06;11.60;99.90
56162;DHT22;42045;52.986;6.014;2023-05-14T04:57:32;11.70;99.90
56162;DHT22;42045;52.986;6.014;2023-05-14T04:59:57;11.90;99.90
56162;DHT22;42045;52.986;6.014;2023-05-14T05:02:23;12.10;99.90
56162;DHT22;42045;52.986;6.014;2023-05-14T05:04:48;12.30;99.90
56162;DHT22;42045;52.986;6.014;2023-05-14T05:07:14;12.50;99.90
56162;DHT22;42045;52.986;6.014;2023-05-14T05:09:41;12.80;99.90
56162;DHT22;42045;52.986;6.014;2023-05-14T05:12:07;13.00;99.90
56162;DHT22;42045;52.986;6.014;2023-05-14T05:14:32;13.10;99.90
56162;DHT22;42045;52.986;6.014;2023-05-14T05:16:58;13.20;99.90
56162;DHT22;42045;52.986;6.014;2023-05-14T05:19:24;13.50;99.90
56162;DHT22;42045;52.986;6.014;2023-05-14T05:21:50;13.90;99.90
56162;DHT22;42045;52.986;6.014;2023-05-14T05:24:15;14.00;99.90
56162;DHT22;42045;52.986;6.014;2023-05-14T05:26:41;14.00;99.90
56162;DHT22;42045;52.986;6.014;2023-05-14T05:29:07;13.80;99.90
56162;DHT22;42045;52.986;6.014;2023-05-14T05:31:33;13.90;99.90
56162;DHT22;42045;52.986;6.014;2023-05-14T05:33:59;13.90;99.90
56162;DHT22;42045;52.986;6.014;2023-05-14T05:36:25;14.10;99.90
56162;DHT22;42045;52.986;6.014;2023-05-14T05:38:51;14.40;99.90
56162;DHT22;42045;52.986;6.014;2023-05-14T05:41:17;15.00;99.90
56162;DHT22;42045;52.986;6.014;2023-05-14T05:43:43;15.20;99.90
56162;DHT22;42045;52.986;6.014;2023-05-14T05:46:08;14.90;99.90
56162;DHT22;42045;52.986;6.014;2023-05-14T05:48:34;15.00;99.90
56162;DHT22;42045;52.986;6.014;2023-05-14T05:51:00;15.00;99.90
56162;DHT22;42045;52.986;6.014;2023-05-14T05:53:25;15.60;99.90
56162;DHT22;42045;52.986;6.014;2023-05-14T05:55:51;15.80;99.90
56162;DHT22;42045;52.986;6.014;2023-05-14T05:58:17;15.90;99.90
56162;DHT22;42045;52.986;6.014;2023-05-14T06:00:44;16.10;99.90
56162;DHT22;42045;52.986;6.014;2023-05-14T06:03:10;16.50;99.90
56162;DHT22;42045;52.986;6.014;2023-05-14T06:05:35;16.80;99.90
56162;DHT22;42045;52.986;6.014;2023-05-14T06:08:01;17.00;99.90
56162;DHT22;42045;52.986;6.014;2023-05-14T06:10:27;17.30;99.90
56162;DHT22;42045;52.986;6.014;2023-05-14T06:12:53;17.80;99.90
56162;DHT22;42045;52.986;6.014;2023-05-14T06:15:19;18.00;99.90
56162;DHT22;42045;52.986;6.014;2023-05-14T06:17:44;18.00;99.90
56162;DHT22;42045;52.986;6.014;2023-05-14T06:20:10;18.30;99.90
56162;DHT22;42045;52.986;6.014;2023-05-14T06:22:36;17.80;99.90
56162;DHT22;42045;52.986;6.014;2023-05-14T06:25:02;17.60;99.90
56162;DHT22;42045;52.986;6.014;2023-05-14T06:27:28;17.20;99.90
56162;DHT22;42045;52.986;6.014;2023-05-14T06:29:54;16.80;99.90
56162;DHT22;42045;52.986;6.014;2023-05-14T06:32:20;16.50;99.90
56162;DHT22;42045;52.986;6.014;2023-05-14T06:34:45;16.40;99.90
56162;DHT22;42045;52.986;6.014;2023-05-14T06:37:11;16.00;99.90
56162;DHT22;42045;52.986;6.014;2023-05-14T06:39:37;16.00;99.90
56162;DHT22;42045;52.986;6.014;2023-05-14T06:42:03;16.40;99.90
56162;DHT22;42045;52.986;6.014;2023-05-14T06:44:29;16.70;99.90
56162;DHT22;42045;52.986;6.014;2023-05-14T06:46:55;16.80;99.90
56162;DHT22;42045;52.986;6.014;2023-05-14T06:49:21;16.90;99.90
56162;DHT22;42045;52.986;6.014;2023-05-14T06:51:47;17.00;99.90
56162;DHT22;42045;52.986;6.014;2023-05-14T06:54:13;17.10;99.90
56162;DHT22;42045;52.986;6.014;2023-05-14T06:56:38;17.10;99.90
56162;DHT22;42045;52.986;6.014;2023-05-14T06:59:04;17.20;99.90
56162;DHT22;42045;52.986;6.014;2023-05-14T07:01:30;17.20;99.90
56162;DHT22;42045;52.986;6.014;2023-05-14T07:03:55;16.90;99.90
56162;DHT22;42045;52.986;6.014;2023-05-14T07:06:21;17.10;99.90
56162;DHT22;42045;52.986;6.014;2023-05-14T07:08:47;17.40;99.90
56162;DHT22;42045;52.986;6.014;2023-05-14T07:11:13;18.10;99.90
56162;DHT22;42045;52.986;6.014;2023-05-14T07:13:39;18.40;99.90
56162;DHT22;42045;52.986;6.014;2023-05-14T07:16:06;18.10;99.90
56162;DHT22;42045;52.986;6.014;2023-05-14T07:18:32;18.00;99.90
56162;DHT22;42045;52.986;6.014;2023-05-14T07:20:57;17.90;99.90
56162;DHT22;42045;52.986;6.014;2023-05-14T07:23:23;18.00;99.90
56162;DHT22;42045;52.986;6.014;2023-05-14T07:25:49;18.10;99.90
56162;DHT22;42045;52.986;6.014;2023-05-14T07:28:14;17.90;99.90
56162;DHT22;42045;52.986;6.014;2023-05-14T07:30:40;17.70;99.90
56162;DHT22;42045;52.986;6.014;2023-05-14T07:33:06;17.40;99.90
56162;DHT22;42045;52.986;6.014;2023-05-14T07:35:31;17.40;99.90
56162;DHT22;42045;52.986;6.014;2023-05-14T07:37:57;17.10;99.90
56162;DHT22;42045;52.986;6.014;2023-05-14T07:40:23;17.30;99.90
56162;DHT22;42045;52.986;6.014;2023-05-14T07:42:49;17.40;99.90
56162;DHT22;42045;52.986;6.014;2023-05-14T07:45:15;17.90;99.90
56162;DHT22;42045;52.986;6.014;2023-05-14T07:47:41;18.20;99.90
56162;DHT22;42045;52.986;6.014;2023-05-14T07:50:07;18.70;99.90
56162;DHT22;42045;52.986;6.014;2023-05-14T07:52:33;19.20;99.90
56162;DHT22;42045;52.986;6.014;2023-05-14T07:54:58;19.60;99.90
56162;DHT22;42045;52.986;6.014;2023-05-14T07:57:25;19.90;99.90
56162;DHT22;42045;52.986;6.014;2023-05-14T07:59:51;19.80;99.90
56162;DHT22;42045;52.986;6.014;2023-05-14T08:02:17;19.80;99.90
56162;DHT22;42045;52.986;6.014;2023-05-14T08:04:43;20.00;99.90
56162;DHT22;42045;52.986;6.014;2023-05-14T08:07:09;20.20;99.90
56162;DHT22;42045;52.986;6.014;2023-05-14T08:09:35;20.20;99.90
56162;DHT22;42045;52.986;6.014;2023-05-14T08:12:01;19.70;99.90
56162;DHT22;42045;52.986;6.014;2023-05-14T08:14:27;19.80;99.90
56162;DHT22;42045;52.986;6.014;2023-05-14T08:16:53;19.40;99.90
56162;DHT22;42045;52.986;6.014;2023-05-14T08:19:19;19.50;99.90
56162;DHT22;42045;52.986;6.014;2023-05-14T08:21:44;19.50;99.90
56162;DHT22;42045;52.986;6.014;2023-05-14T08:24:10;19.50;99.90
56162;DHT22;42045;52.986;6.014;2023-05-14T08:26:36;19.30;99.90
56162;DHT22;42045;52.986;6.014;2023-05-14T08:29:03;19.10;99.90
56162;DHT22;42045;52.986;6.014;2023-05-14T08:31:29;19.20;99.90
56162;DHT22;42045;52.986;6.014;2023-05-14T08:33:55;18.70;99.90
56162;DHT22;42045;52.986;6.014;2023-05-14T08:36:21;18.70;99.90
56162;DHT22;42045;52.986;6.014;2023-05-14T08:38:46;19.00;99.90
56162;DHT22;42045;52.986;6.014;2023-05-14T08:41:14;19.10;99.90
56162;DHT22;42045;52.986;6.014;2023-05-14T08:46:16;18.60;99.90
56162;DHT22;42045;52.986;6.014;2023-05-14T08:48:45;18.70;99.90
56162;DHT22;42045;52.986;6.014;2023-05-14T08:51:12;18.50;99.90
56162;DHT22;42045;52.986;6.014;2023-05-14T08:53:38;18.80;99.90
56162;DHT22;42045;52.986;6.014;2023-05-14T08:56:06;19.00;99.90
56162;DHT22;42045;52.986;6.014;2023-05-14T08:58:32;19.10;99.90
56162;DHT22;42045;52.986;6.014;2023-05-14T09:00:58;19.00;99.90
56162;DHT22;42045;52.986;6.014;2023-05-14T09:03:24;19.00;99.90
56162;DHT22;42045;52.986;6.014;2023-05-14T09:05:50;19.30;99.90
56162;DHT22;42045;52.986;6.014;2023-05-14T09:08:16;19.50;99.90
56162;DHT22;42045;52.986;6.014;2023-05-14T09:10:42;19.20;99.90
56162;DHT22;42045;52.986;6.014;2023-05-14T09:13:07;19.10;99.90
56162;DHT22;42045;52.986;6.014;2023-05-14T09:15:36;19.00;99.90
56162;DHT22;42045;52.986;6.014;2023-05-14T09:18:06;19.00;99.90
56162;DHT22;42045;52.986;6.014;2023-05-14T09:20:32;19.30;99.90
56162;DHT22;42045;52.986;6.014;2023-05-14T09:22:58;19.10;99.90
56162;DHT22;42045;52.986;6.014;2023-05-14T09:25:27;19.00;99.90
56162;DHT22;42045;52.986;6.014;2023-05-14T09:27:55;19.30;99.90
56162;DHT22;42045;52.986;6.014;2023-05-14T09:30:21;19.30;99.90
56162;DHT22;42045;52.986;6.014;2023-05-14T09:32:48;19.30;99.90
56162;DHT22;42045;52.986;6.014;2023-05-14T09:35:22;19.20;99.90
56162;DHT22;42045;52.986;6.014;2023-05-14T09:37:50;19.10;99.90
56162;DHT22;42045;52.986;6.014;2023-05-14T09:40:18;19.20;99.90
56162;DHT22;42045;52.986;6.014;2023-05-14T09:42:45;19.60;99.90
56162;DHT22;42045;52.986;6.014;2023-05-14T09:45:11;20.00;99.90
56162;DHT22;42045;52.986;6.014;2023-05-14T09:47:38;19.90;99.90
56162;DHT22;42045;52.986;6.014;2023-05-14T09:50:05;20.00;99.90
56162;DHT22;42045;52.986;6.014;2023-05-14T09:52:31;20.10;99.90
56162;DHT22;42045;52.986;6.014;2023-05-14T09:54:57;19.90;99.90
56162;DHT22;42045;52.986;6.014;2023-05-14T09:57:23;19.80;99.90
56162;DHT22;42045;52.986;6.014;2023-05-14T09:59:49;19.80;99.90
56162;DHT22;42045;52.986;6.014;2023-05-14T10:02:37;19.80;99.90
56162;DHT22;42045;52.986;6.014;2023-05-14T10:05:06;19.90;99.90
56162;DHT22;42045;52.986;6.014;2023-05-14T10:07:41;20.00;99.90
56162;DHT22;42045;52.986;6.014;2023-05-14T10:10:14;20.00;99.90
56162;DHT22;42045;52.986;6.014;2023-05-14T10:12:40;20.10;99.90
56162;DHT22;42045;52.986;6.014;2023-05-14T10:15:16;20.40;99.90
56162;DHT22;42045;52.986;6.014;2023-05-14T10:17:48;20.60;99.90
56162;DHT22;42045;52.986;6.014;2023-05-14T10:20:14;20.60;99.90
56162;DHT22;42045;52.986;6.014;2023-05-14T10:22:43;20.70;99.90
56162;DHT22;42045;52.986;6.014;2023-05-14T10:25:10;20.70;99.90
56162;DHT22;42045;52.986;6.014;2023-05-14T10:27:36;20.90;99.90
56162;DHT22;42045;52.986;6.014;2023-05-14T10:30:05;20.80;99.90
56162;DHT22;42045;52.986;6.014;2023-05-14T10:32:34;20.60;99.90
56162;DHT22;42045;52.986;6.014;2023-05-14T10:35:17;20.80;99.90
56162;DHT22;42045;52.986;6.014;2023-05-14T10:37:44;20.80;99.90
56162;DHT22;42045;52.986;6.014;2023-05-14T10:40:12;20.80;99.90
56162;DHT22;42045;52.986;6.014;2023-05-14T10:42:38;20.80;99.90
56162;DHT22;42045;52.986;6.014;2023-05-14T10:45:10;21.10;99.90
56162;DHT22;42045;52.986;6.014;2023-05-14T10:47:37;21.20;99.90
56162;DHT22;42045;52.986;6.014;2023-05-14T10:50:05;21.40;99.90
56162;DHT22;42045;52.986;6.014;2023-05-14T10:52:32;21.50;99.90
56162;DHT22;42045;52.986;6.014;2023-05-14T10:55:00;21.30;99.90
56162;DHT22;42045;52.986;6.014;2023-05-14T10:57:28;21.30;99.90
56162;DHT22;42045;52.986;6.014;2023-05-14T10:59:55;21.50;99.90
56162;DHT22;42045;52.986;6.014;2023-05-14T11:02:25;21.60;99.90
56162;DHT22;42045;52.986;6.014;2023-05-14T11:05:02;21.70;99.90
56162;DHT22;42045;52.986;6.014;2023-05-14T11:07:34;21.80;99.90
56162;DHT22;42045;52.986;6.014;2023-05-14T11:10:04;21.90;99.90
56162;DHT22;42045;52.986;6.014;2023-05-14T11:12:32;22.10;99.90
56162;DHT22;42045;52.986;6.014;2023-05-14T11:14:59;22.10;99.90
56162;DHT22;42045;52.986;6.014;2023-05-14T11:17:27;22.10;99.90
56162;DHT22;42045;52.986;6.014;2023-05-14T11:19:54;22.10;99.90
56162;DHT22;42045;52.986;6.014;2023-05-14T11:22:21;22.10;99.90
56162;DHT22;42045;52.986;6.014;2023-05-14T11:24:47;22.10;99.90
56162;DHT22;42045;52.986;6.014;2023-05-14T11:27:13;22.20;99.90
56162;DHT22;42045;52.986;6.014;2023-05-14T11:29:57;22.20;99.90
56162;DHT22;42045;52.986;6.014;2023-05-14T11:32:28;22.20;99.90
56162;DHT22;42045;52.986;6.014;2023-05-14T11:34:53;22.10;99.90
56162;DHT22;42045;52.986;6.014;2023-05-14T11:37:19;22.10;99.90
56162;DHT22;42045;52.986;6.014;2023-05-14T11:39:57;22.00;99.90
56162;DHT22;42045;52.986;6.014;2023-05-14T11:42:23;22.10;99.90
56162;DHT22;42045;52.986;6.014;2023-05-14T11:44:51;22.00;99.90
56162;DHT22;42045;52.986;6.014;2023-05-14T11:47:18;22.00;99.90
56162;DHT22;42045;52.986;6.014;2023-05-14T11:49:44;21.90;99.90
56162;DHT22;42045;52.986;6.014;2023-05-14T11:52:11;22.00;99.90
56162;DHT22;42045;52.986;6.014;2023-05-14T11:54:39;21.80;99.90
56162;DHT22;42045;52.986;6.014;2023-05-14T11:57:17;21.80;99.90
56162;DHT22;42045;52.986;6.014;2023-05-14T11:59:44;21.80;99.90
56162;DHT22;42045;52.986;6.014;2023-05-14T12:02:14;21.80;99.90
56162;DHT22;42045;52.986;6.014;2023-05-14T12:04:41;21.80;99.90
56162;DHT22;42045;52.986;6.014;2023-05-14T12:07:12;21.80;99.90
56162;DHT22;42045;52.986;6.014;2023-05-14T12:09:43;22.00;99.90
56162;DHT22;42045;52.986;6.014;2023-05-14T12:12:14;22.20;99.90
56162;DHT22;42045;52.986;6.014;2023-05-14T12:14:41;22.40;99.90
56162;DHT22;42045;52.986;6.014;2023-05-14T12:17:15;22.50;99.90
56162;DHT22;42045;52.986;6.014;2023-05-14T12:19:43;22.60;99.90
56162;DHT22;42045;52.986;6.014;2023-05-14T12:22:10;22.80;99.90
56162;DHT22;42045;52.986;6.014;2023-05-14T12:24:36;23.00;99.90
56162;DHT22;42045;52.986;6.014;2023-05-14T12:27:04;23.10;99.90
56162;DHT22;42045;52.986;6.014;2023-05-14T12:29:29;23.10;99.90
56162;DHT22;42045;52.986;6.014;2023-05-14T12:31:56;23.00;99.90
56162;DHT22;42045;52.986;6.014;2023-05-14T12:34:25;22.90;99.90
56162;DHT22;42045;52.986;6.014;2023-05-14T12:36:51;22.80;99.90
56162;DHT22;42045;52.986;6.014;2023-05-14T12:39:16;23.00;99.90
56162;DHT22;42045;52.986;6.014;2023-05-14T12:41:42;23.00;99.90
56162;DHT22;42045;52.986;6.014;2023-05-14T12:44:08;23.10;99.90
56162;DHT22;42045;52.986;6.014;2023-05-14T12:46:34;23.20;99.90
56162;DHT22;42045;52.986;6.014;2023-05-14T12:48:59;23.30;99.90
56162;DHT22;42045;52.986;6.014;2023-05-14T12:51:25;23.20;99.90
56162;DHT22;42045;52.986;6.014;2023-05-14T12:53:51;23.10;99.90
56162;DHT22;42045;52.986;6.014;2023-05-14T12:56:18;23.10;99.90
56162;DHT22;42045;52.986;6.014;2023-05-14T12:58:44;23.10;99.90
56162;DHT22;42045;52.986;6.014;2023-05-14T13:01:11;23.00;99.90
56162;DHT22;42045;52.986;6.014;2023-05-14T13:03:37;23.00;99.90
56162;DHT22;42045;52.986;6.014;2023-05-14T13:06:02;23.10;99.90
56162;DHT22;42045;52.986;6.014;2023-05-14T13:08:28;23.30;99.90
56162;DHT22;42045;52.986;6.014;2023-05-14T13:10:54;23.30;99.90
56162;DHT22;42045;52.986;6.014;2023-05-14T13:13:21;23.30;99.90
56162;DHT22;42045;52.986;6.014;2023-05-14T13:15:47;23.50;99.90
56162;DHT22;42045;52.986;6.014;2023-05-14T13:18:13;23.60;99.90
56162;DHT22;42045;52.986;6.014;2023-05-14T13:20:39;23.50;99.90
56162;DHT22;42045;52.986;6.014;2023-05-14T13:23:05;23.60;99.90
56162;DHT22;42045;52.986;6.014;2023-05-14T13:25:30;23.70;99.90
56162;DHT22;42045;52.986;6.014;2023-05-14T13:27:56;23.50;99.90
56162;DHT22;42045;52.986;6.014;2023-05-14T13:30:22;23.40;99.90
56162;DHT22;42045;52.986;6.014;2023-05-14T13:32:47;23.30;99.90
56162;DHT22;42045;52.986;6.014;2023-05-14T13:35:13;23.10;99.90
56162;DHT22;42045;52.986;6.014;2023-05-14T13:37:39;23.00;99.90
56162;DHT22;42045;52.986;6.014;2023-05-14T13:40:05;23.10;99.90
56162;DHT22;42045;52.986;6.014;2023-05-14T13:42:33;23.10;99.90
56162;DHT22;42045;52.986;6.014;2023-05-14T13:44:59;23.30;99.90
56162;DHT22;42045;52.986;6.014;2023-05-14T13:47:25;23.40;99.90
56162;DHT22;42045;52.986;6.014;2023-05-14T13:49:52;23.40;99.90
56162;DHT22;42045;52.986;6.014;2023-05-14T13:52:18;23.50;99.90
56162;DHT22;42045;52.986;6.014;2023-05-14T13:54:43;23.40;99.90
56162;DHT22;42045;52.986;6.014;2023-05-14T13:57:09;23.40;99.90
56162;DHT22;42045;52.986;6.014;2023-05-14T13:59:35;23.30;99.90
56162;DHT22;42045;52.986;6.014;2023-05-14T14:02:01;23.10;99.90
56162;DHT22;42045;52.986;6.014;2023-05-14T14:04:27;23.20;99.90
56162;DHT22;42045;52.986;6.014;2023-05-14T14:06:56;23.20;99.90
56162;DHT22;42045;52.986;6.014;2023-05-14T14:09:22;23.20;99.90
56162;DHT22;42045;52.986;6.014;2023-05-14T14:11:47;23.20;99.90
56162;DHT22;42045;52.986;6.014;2023-05-14T14:14:13;23.30;99.90
56162;DHT22;42045;52.986;6.014;2023-05-14T14:16:39;23.30;99.90
56162;DHT22;42045;52.986;6.014;2023-05-14T14:19:05;23.30;99.90
56162;DHT22;42045;52.986;6.014;2023-05-14T14:21:31;23.10;99.90
56162;DHT22;42045;52.986;6.014;2023-05-14T14:23:57;23.10;99.90
56162;DHT22;42045;52.986;6.014;2023-05-14T14:26:23;23.10;99.90
56162;DHT22;42045;52.986;6.014;2023-05-14T14:28:49;23.20;99.90
56162;DHT22;42045;52.986;6.014;2023-05-14T14:31:15;23.30;99.90
56162;DHT22;42045;52.986;6.014;2023-05-14T14:33:41;23.20;99.90
56162;DHT22;42045;52.986;6.014;2023-05-14T14:36:07;23.20;99.90
56162;DHT22;42045;52.986;6.014;2023-05-14T14:38:33;23.20;99.90
56162;DHT22;42045;52.986;6.014;2023-05-14T14:40:59;23.20;99.90
56162;DHT22;42045;52.986;6.014;2023-05-14T14:43:27;23.20;99.90
56162;DHT22;42045;52.986;6.014;2023-05-14T14:45:53;23.20;99.90
56162;DHT22;42045;52.986;6.014;2023-05-14T14:48:24;23.30;99.90
56162;DHT22;42045;52.986;6.014;2023-05-14T14:50:50;23.30;99.90
56162;DHT22;42045;52.986;6.014;2023-05-14T14:53:17;23.10;99.90
56162;DHT22;42045;52.986;6.014;2023-05-14T14:55:43;23.10;99.90
56162;DHT22;42045;52.986;6.014;2023-05-14T14:58:08;23.00;99.90
56162;DHT22;42045;52.986;6.014;2023-05-14T15:00:34;23.00;99.90
56162;DHT22;42045;52.986;6.014;2023-05-14T15:03:00;22.80;99.90
56162;DHT22;42045;52.986;6.014;2023-05-14T15:05:25;22.80;99.90
56162;DHT22;42045;52.986;6.014;2023-05-14T15:07:51;22.80;99.90
56162;DHT22;42045;52.986;6.014;2023-05-14T15:10:17;22.60;99.90
56162;DHT22;42045;52.986;6.014;2023-05-14T15:12:42;22.60;99.90
56162;DHT22;42045;52.986;6.014;2023-05-14T15:15:08;22.60;99.90
56162;DHT22;42045;52.986;6.014;2023-05-14T15:17:34;22.60;99.90
56162;DHT22;42045;52.986;6.014;2023-05-14T15:20:00;22.40;99.90
56162;DHT22;42045;52.986;6.014;2023-05-14T15:22:26;22.50;99.90
56162;DHT22;42045;52.986;6.014;2023-05-14T15:24:51;22.40;99.90
56162;DHT22;42045;52.986;6.014;2023-05-14T15:27:17;22.30;99.90
56162;DHT22;42045;52.986;6.014;2023-05-14T15:29:42;22.40;99.90
56162;DHT22;42045;52.986;6.014;2023-05-14T15:32:08;22.30;99.90
56162;DHT22;42045;52.986;6.014;2023-05-14T15:34:34;22.30;99.90